Time;durP1;ratioP1;P1;durP2;ratioP2;P2;SDS_P1;SDS_P2;PMS_P1;PMS_P2;Temp;Humidity;BMP_temperature;BMP_pressure;BME280_temperature;BME280_humidity;BME280_pressure;Samples;Min_cycle;Max_cycle;Signal;HPM_P1;HPM_P2
2021/11/03 00:00:17;;;;;;;11.55;7.57;;;;;;;;;;5049438;28;20052;-67
2021/11/03 00:02:43;;;;;;;15.13;8.23;;;;;;;;;;5048028;28;20033;-67
2021/11/03 00:05:11;;;;;;;12.70;7.97;;;;;;;;;;5046443;28;20029;-68
2021/11/03 00:07:38;;;;;;;10.63;6.95;;;;;;;;;;5046744;28;20389;-67
2021/11/03 00:10:05;;;;;;;13.02;8.38;;;;;;;;;;5049656;28;20029;-67
2021/11/03 00:12:32;;;;;;;13.10;7.90;;;;;;;;;;5050361;28;20051;-67
2021/11/03 00:14:58;;;;;;;15.27;8.35;;;;;;;;;;5049861;28;20021;-67
2021/11/03 00:17:25;;;;;;;13.93;8.48;;;;;;;;;;5048529;28;20384;-67
2021/11/03 00:19:50;;;;;;;16.38;8.32;;;;;;;;;;5047315;28;20060;-67
2021/11/03 00:22:17;;;;;;;18.60;8.52;;;;;;;;;;5047288;28;20068;-67
2021/11/03 00:24:43;;;;;;;13.35;8.75;;;;;;;;;;5047934;28;20052;-67
2021/11/03 00:27:09;;;;;;;16.63;9.43;;;;;;;;;;5051748;28;20051;-67
2021/11/03 00:29:36;;;;;;;13.52;8.02;;;;;;;;;;5048062;28;20128;-67
2021/11/03 00:32:02;;;;;;;15.00;8.75;;;;;;;;;;5047855;28;20029;-67
2021/11/03 00:34:28;;;;;;;14.13;8.20;;;;;;;;;;5047434;28;20106;-67
2021/11/03 00:36:54;;;;;;;18.10;9.15;;;;;;;;;;5048170;28;20362;-67
2021/11/03 00:39:22;;;;;;;15.98;9.85;;;;;;;;;;5051074;28;20062;-67
2021/11/03 00:41:48;;;;;;;;;;;;;;;;;;5051108;28;20507;-64
2021/11/03 00:44:14;;;;;;;12.15;8.65;;;;;;;;;;5047383;28;19909;-67
2021/11/03 00:46:40;;;;;;;14.38;8.75;;;;;;;;;;5047841;28;20025;-66
2021/11/03 00:49:06;;;;;;;14.80;8.55;;;;;;;;;;5047366;28;20078;-67
2021/11/03 00:51:32;;;;;;;18.35;9.00;;;;;;;;;;5049678;28;20469;-67
2021/11/03 00:53:58;;;;;;;13.07;7.88;;;;;;;;;;5049498;28;20021;-67
2021/11/03 00:56:24;;;;;;;12.70;7.38;;;;;;;;;;5047495;28;20017;-66
2021/11/03 00:58:50;;;;;;;12.27;7.53;;;;;;;;;;5047423;28;20021;-67
2021/11/03 01:01:16;;;;;;;12.75;7.32;;;;;;;;;;5047995;28;20381;-67
2021/11/03 01:03:42;;;;;;;14.98;7.97;;;;;;;;;;5048181;28;20035;-67
2021/11/03 01:06:08;;;;;;;11.23;6.90;;;;;;;;;;5050453;28;20020;-67
2021/11/03 01:08:34;;;;;;;12.25;7.40;;;;;;;;;;5047148;28;20444;-66
2021/11/03 01:11:01;;;;;;;14.93;8.30;;;;;;;;;;5047776;28;20028;-66
2021/11/03 01:13:27;;;;;;;12.68;6.90;;;;;;;;;;5047724;28;20477;-67
2021/11/03 01:15:57;;;;;;;13.05;6.75;;;;;;;;;;5047456;28;20036;-66
2021/11/03 01:18:24;;;;;;;14.45;7.95;;;;;;;;;;5049487;28;20029;-66
2021/11/03 01:20:50;;;;;;;12.20;7.68;;;;;;;;;;5048555;28;20033;-66
2021/11/03 01:23:16;;;;;;;16.80;7.65;;;;;;;;;;5047464;28;20096;-66
2021/11/03 01:25:42;;;;;;;12.88;7.35;;;;;;;;;;5047373;28;20025;-66
2021/11/03 01:28:08;;;;;;;14.85;7.82;;;;;;;;;;5051089;28;20033;-67
2021/11/03 01:30:34;;;;;;;11.68;7.28;;;;;;;;;;5053045;28;20036;-66
2021/11/03 01:33:00;;;;;;;10.90;6.72;;;;;;;;;;5052919;28;20053;-67
2021/11/03 01:35:26;;;;;;;12.63;6.55;;;;;;;;;;5051303;28;20025;-66
2021/11/03 01:37:52;;;;;;;13.00;7.90;;;;;;;;;;5051207;28;20027;-67
2021/11/03 01:40:22;;;;;;;11.60;6.85;;;;;;;;;;5052766;28;20103;-67
2021/11/03 01:42:48;;;;;;;9.27;5.22;;;;;;;;;;5036475;28;20025;-67
2021/11/03 01:45:16;;;;;;;16.45;5.70;;;;;;;;;;5053853;28;20049;-67
2021/11/03 01:47:43;;;;;;;11.80;7.25;;;;;;;;;;5051494;28;20035;-67
2021/11/03 01:50:18;;;;;;;12.27;6.47;;;;;;;;;;5051417;28;20074;-67
2021/11/03 01:52:45;;;;;;;11.23;6.00;;;;;;;;;;5050893;28;20488;-67
2021/11/03 01:55:12;;;;;;;15.30;6.55;;;;;;;;;;5051306;28;20033;-67
2021/11/03 01:57:40;;;;;;;9.85;6.43;;;;;;;;;;5051575;28;20064;-68
2021/11/03 02:00:10;;;;;;;13.50;5.95;;;;;;;;;;5053556;28;20017;-67
2021/11/03 02:02:36;;;;;;;14.23;6.75;;;;;;;;;;5051064;28;20028;-67
2021/11/03 02:05:03;;;;;;;10.48;6.03;;;;;;;;;;5050540;28;20465;-67
2021/11/03 02:07:31;;;;;;;10.18;5.95;;;;;;;;;;5050087;28;20021;-67
2021/11/03 02:09:57;;;;;;;11.27;6.68;;;;;;;;;;5051008;28;20025;-66
2021/11/03 02:12:24;;;;;;;10.40;6.22;;;;;;;;;;5051708;28;20029;-67
2021/11/03 02:14:51;;;;;;;11.35;5.40;;;;;;;;;;5051994;28;20051;-67
2021/11/03 02:17:17;;;;;;;8.75;4.65;;;;;;;;;;5050591;28;20025;-66
2021/11/03 02:19:44;;;;;;;8.88;5.15;;;;;;;;;;5049987;28;20122;-67
2021/11/03 02:22:16;;;;;;;11.13;4.95;;;;;;;;;;5050914;28;20024;-67
2021/11/03 02:24:47;;;;;;;10.88;5.57;;;;;;;;;;5034714;28;20021;-67
2021/11/03 02:27:14;;;;;;;8.15;4.60;;;;;;;;;;5053791;28;20029;-67
2021/11/03 02:29:40;;;;;;;6.38;3.80;;;;;;;;;;5052614;28;20087;-67
2021/11/03 02:32:17;;;;;;;7.10;4.07;;;;;;;;;;5050068;28;20097;-67
2021/11/03 02:34:43;;;;;;;8.90;4.35;;;;;;;;;;5048719;28;20041;-67
2021/11/03 02:37:27;;;;;;;7.95;4.70;;;;;;;;;;5049862;28;20423;-67
2021/11/03 02:40:14;;;;;;;8.43;4.28;;;;;;;;;;5037390;28;20503;-67
2021/11/03 02:42:45;;;;;;;7.68;4.35;;;;;;;;;;5050774;28;20413;-67
2021/11/03 02:45:17;;;;;;;8.13;4.63;;;;;;;;;;5053517;28;20037;-66
2021/11/03 02:47:43;;;;;;;8.82;3.95;;;;;;;;;;5050853;28;20031;-66
2021/11/03 02:50:10;;;;;;;10.07;4.60;;;;;;;;;;5049760;28;20072;-66
2021/11/03 02:52:36;;;;;;;7.22;4.32;;;;;;;;;;5049802;28;20552;-66
2021/11/03 02:55:03;;;;;;;8.68;4.45;;;;;;;;;;5048776;28;20370;-66
2021/11/03 02:57:29;;;;;;;9.40;4.85;;;;;;;;;;5051326;28;20387;-67
2021/11/03 02:59:55;;;;;;;12.27;4.78;;;;;;;;;;5051501;28;20025;-67
2021/11/03 03:02:20;;;;;;;8.55;4.47;;;;;;;;;;5049378;28;20025;-67
2021/11/03 03:04:48;;;;;;;8.20;5.13;;;;;;;;;;5049635;28;20032;-67
2021/11/03 03:07:15;;;;;;;9.80;4.50;;;;;;;;;;5049642;28;20075;-67
2021/11/03 03:09:41;;;;;;;9.00;5.10;;;;;;;;;;5049332;28;20044;-67
2021/11/03 03:12:08;;;;;;;9.68;5.00;;;;;;;;;;5052945;28;20017;-67
2021/11/03 03:14:36;;;;;;;9.40;4.80;;;;;;;;;;5049733;28;20438;-67
2021/11/03 03:17:02;;;;;;;;;;;;;;;;;;5049741;28;20396;-67
2021/11/03 03:19:28;;;;;;;10.35;4.78;;;;;;;;;;5049538;28;19911;-67
2021/11/03 03:21:54;;;;;;;8.32;4.50;;;;;;;;;;5049573;28;20071;-66
2021/11/03 03:24:20;;;;;;;7.88;4.40;;;;;;;;;;5050314;28;20086;-66
2021/11/03 03:26:47;;;;;;;7.70;4.72;;;;;;;;;;5051628;28;20047;-67
2021/11/03 03:29:13;;;;;;;7.20;4.40;;;;;;;;;;5049251;28;20033;-66
2021/11/03 03:31:39;;;;;;;8.93;4.50;;;;;;;;;;5049085;28;20021;-66
2021/11/03 03:34:07;;;;;;;9.02;4.57;;;;;;;;;;5048670;28;20049;-66
2021/11/03 03:36:34;;;;;;;8.23;4.78;;;;;;;;;;5050295;28;20040;-67
2021/11/03 03:39:00;;;;;;;9.32;4.53;;;;;;;;;;5050983;28;20025;-67
2021/11/03 03:41:27;;;;;;;8.35;4.47;;;;;;;;;;5049733;28;20040;-67
2021/11/03 03:43:53;;;;;;;11.32;4.60;;;;;;;;;;5046598;28;20055;-67
2021/11/03 03:46:21;;;;;;;7.18;4.10;;;;;;;;;;5048067;28;20095;-67
2021/11/03 03:48:47;;;;;;;7.72;4.50;;;;;;;;;;5047212;28;20039;-67
2021/11/03 03:51:13;;;;;;;10.10;4.95;;;;;;;;;;5051810;28;20017;-67
2021/11/03 03:53:40;;;;;;;9.07;4.75;;;;;;;;;;5049029;28;20036;-67
2021/11/03 03:56:06;;;;;;;7.40;4.75;;;;;;;;;;5047348;28;20476;-67
2021/11/03 03:58:32;;;;;;;9.27;5.28;;;;;;;;;;5048475;28;20029;-66
2021/11/03 04:00:58;;;;;;;8.05;4.40;;;;;;;;;;5048451;28;20100;-66
2021/11/03 04:03:24;;;;;;;7.57;4.30;;;;;;;;;;5050180;28;20484;-67
2021/11/03 04:05:51;;;;;;;11.68;4.53;;;;;;;;;;5050934;28;20096;-67
2021/11/03 04:08:19;;;;;;;9.77;4.10;;;;;;;;;;5048079;28;20432;-66
2021/11/03 04:10:46;;;;;;;8.15;4.80;;;;;;;;;;5048192;28;20141;-66
2021/11/03 04:13:12;;;;;;;7.82;4.38;;;;;;;;;;5048000;28;20021;-66
2021/11/03 04:15:39;;;;;;;8.88;4.28;;;;;;;;;;5048713;28;20389;-67
2021/11/03 04:18:05;;;;;;;11.05;4.50;;;;;;;;;;5049211;28;20108;-67
2021/11/03 04:20:31;;;;;;;8.40;5.00;;;;;;;;;;5047618;28;20098;-66
2021/11/03 04:22:57;;;;;;;6.60;4.03;;;;;;;;;;5048340;28;20061;-67
2021/11/03 04:25:23;;;;;;;7.68;4.00;;;;;;;;;;5048022;28;20063;-67
2021/11/03 04:27:49;;;;;;;6.65;3.55;;;;;;;;;;5047631;28;20470;-66
2021/11/03 04:30:18;;;;;;;7.55;4.22;;;;;;;;;;5050182;28;20025;-66
2021/11/03 04:32:43;;;;;;;;;;;;;;;;;;5049196;28;20105;-66
2021/11/03 04:35:09;;;;;;;8.65;3.88;;;;;;;;;;5047823;28;20407;-66
2021/11/03 04:37:36;;;;;;;8.40;3.88;;;;;;;;;;5047308;28;20028;-66
2021/11/03 04:40:03;;;;;;;8.23;3.67;;;;;;;;;;5047557;28;20040;-66
2021/11/03 04:42:29;;;;;;;7.57;3.03;;;;;;;;;;5049380;28;20035;-67
2021/11/03 04:44:55;;;;;;;4.35;2.42;;;;;;;;;;5049011;28;20032;-67
2021/11/03 04:47:21;;;;;;;4.32;1.95;;;;;;;;;;5048032;28;20025;-66
2021/11/03 04:49:47;;;;;;;4.60;2.60;;;;;;;;;;5047354;28;20368;-66
2021/11/03 04:52:13;;;;;;;4.25;2.30;;;;;;;;;;5047428;28;20025;-66
2021/11/03 04:54:39;;;;;;;5.10;3.10;;;;;;;;;;5047855;28;20025;-66
2021/11/03 04:57:05;;;;;;;7.80;3.20;;;;;;;;;;5050409;28;20104;-66
2021/11/03 04:59:31;;;;;;;5.75;2.50;;;;;;;;;;5047027;28;20029;-66
2021/11/03 05:01:57;;;;;;;4.07;2.20;;;;;;;;;;5046160;28;20024;-66
2021/11/03 05:04:23;;;;;;;4.80;2.22;;;;;;;;;;5046244;28;20086;-67
2021/11/03 05:06:50;;;;;;;2.47;1.30;;;;;;;;;;5046861;28;20026;-66
2021/11/03 05:09:17;;;;;;;2.70;1.15;;;;;;;;;;5048408;28;20040;-66
2021/11/03 05:11:43;;;;;;;2.97;1.33;;;;;;;;;;5047862;28;20029;-66
2021/11/03 05:14:09;;;;;;;1.48;1.08;;;;;;;;;;5047907;28;20033;-66
2021/11/03 05:16:35;;;;;;;2.55;1.10;;;;;;;;;;5046612;28;20111;-68
2021/11/03 05:19:01;;;;;;;2.50;1.20;;;;;;;;;;5049527;28;20553;-68
2021/11/03 05:21:27;;;;;;;3.33;1.92;;;;;;;;;;5049558;28;20033;-68
2021/11/03 05:23:54;;;;;;;4.13;2.05;;;;;;;;;;5050895;28;20062;-68
2021/11/03 05:26:26;;;;;;;2.03;0.80;;;;;;;;;;5046345;28;20035;-67
2021/11/03 05:28:54;;;;;;;3.38;1.98;;;;;;;;;;5046471;28;20041;-68
2021/11/03 05:31:20;;;;;;;4.85;2.88;;;;;;;;;;5048623;28;20025;-69
2021/11/03 05:33:46;;;;;;;4.75;2.83;;;;;;;;;;5048167;28;20489;-68
2021/11/03 05:36:20;;;;;;;5.35;3.08;;;;;;;;;;5050055;28;20063;-68
2021/11/03 05:38:46;;;;;;;5.22;3.13;;;;;;;;;;5049084;28;20033;-69
2021/11/03 05:41:12;;;;;;;5.28;2.80;;;;;;;;;;5048565;28;20103;-69
2021/11/03 05:43:39;;;;;;;4.78;2.25;;;;;;;;;;5048345;28;20118;-70
2021/11/03 05:46:05;;;;;;;2.22;1.10;;;;;;;;;;5049057;28;20118;-68
2021/11/03 05:48:32;;;;;;;2.85;1.42;;;;;;;;;;5048504;28;20033;-69
2021/11/03 05:51:02;;;;;;;2.42;1.58;;;;;;;;;;5049974;28;20100;-68
2021/11/03 05:53:28;;;;;;;2.25;1.50;;;;;;;;;;5048645;28;20140;-69
2021/11/03 05:55:54;;;;;;;1.17;0.65;;;;;;;;;;5048579;28;20044;-68
2021/11/03 05:58:20;;;;;;;1.05;0.70;;;;;;;;;;5048300;28;20037;-68
2021/11/03 06:00:46;;;;;;;2.00;0.85;;;;;;;;;;5048732;28;20547;-68
2021/11/03 06:03:12;;;;;;;2.00;1.02;;;;;;;;;;5050529;28;20028;-68
2021/11/03 06:05:38;;;;;;;1.35;0.90;;;;;;;;;;5048649;28;20310;-68
2021/11/03 06:08:05;;;;;;;3.28;1.30;;;;;;;;;;5047725;28;20435;-68
2021/11/03 06:10:37;;;;;;;0.90;0.77;;;;;;;;;;5048559;28;20017;-68
2021/11/03 06:13:04;;;;;;;1.38;0.50;;;;;;;;;;5048294;28;20070;-68
2021/11/03 06:15:32;;;;;;;1.02;0.60;;;;;;;;;;5051137;28;20051;-69
2021/11/03 06:17:58;;;;;;;;;;;;;;;;;;5052804;28;20060;-67
2021/11/03 06:20:24;;;;;;;2.25;1.13;;;;;;;;;;5050815;28;19951;-68
2021/11/03 06:22:50;;;;;;;1.02;0.50;;;;;;;;;;5050414;28;20124;-68
2021/11/03 06:25:16;;;;;;;1.15;0.65;;;;;;;;;;5050305;28;20103;-68
2021/11/03 06:27:43;;;;;;;2.33;0.70;;;;;;;;;;5052436;28;20032;-68
2021/11/03 06:30:10;;;;;;;0.93;0.70;;;;;;;;;;5052941;28;20083;-68
2021/11/03 06:32:36;;;;;;;4.03;0.77;;;;;;;;;;5051036;28;20029;-68
2021/11/03 06:35:05;;;;;;;1.40;0.80;;;;;;;;;;5050156;28;20108;-70
2021/11/03 06:37:32;;;;;;;0.95;0.73;;;;;;;;;;5049655;28;20036;-70
2021/11/03 06:39:58;;;;;;;1.57;1.00;;;;;;;;;;5050903;28;20494;-68
2021/11/03 06:42:24;;;;;;;1.17;0.50;;;;;;;;;;5050700;28;20765;-67
2021/11/03 06:44:51;;;;;;;3.10;1.00;;;;;;;;;;5052029;28;20021;-67
2021/11/03 06:47:19;;;;;;;3.38;1.20;;;;;;;;;;5051465;28;20021;-68
2021/11/03 06:49:45;;;;;;;2.13;1.10;;;;;;;;;;5050580;28;20040;-68
2021/11/03 06:52:11;;;;;;;3.75;0.80;;;;;;;;;;5052004;28;20120;-69
2021/11/03 06:54:37;;;;;;;2.47;0.98;;;;;;;;;;5050816;28;20569;-69
2021/11/03 06:57:03;;;;;;;2.47;1.10;;;;;;;;;;5052113;28;20051;-69
2021/11/03 06:59:30;;;;;;;1.80;0.80;;;;;;;;;;5050825;28;20047;-69
2021/11/03 07:01:56;;;;;;;4.15;1.10;;;;;;;;;;5049413;28;20025;-69
2021/11/03 07:04:22;;;;;;;0.82;0.73;;;;;;;;;;5049480;28;20424;-68
2021/11/03 07:06:48;;;;;;;1.73;0.50;;;;;;;;;;5049961;28;20029;-68
2021/11/03 07:09:15;;;;;;;0.70;0.35;;;;;;;;;;5052318;28;20028;-67
2021/11/03 07:11:41;;;;;;;1.45;0.57;;;;;;;;;;5050913;28;20056;-68
2021/11/03 07:14:08;;;;;;;0.55;0.38;;;;;;;;;;5049560;28;20392;-68
2021/11/03 07:16:34;;;;;;;1.67;0.55;;;;;;;;;;5038765;28;20025;-68
2021/11/03 07:19:00;;;;;;;2.13;0.45;;;;;;;;;;5037863;28;20489;-69
2021/11/03 07:21:26;;;;;;;0.40;0.35;;;;;;;;;;5048684;28;20119;-68
2021/11/03 07:23:52;;;;;;;0.80;0.43;;;;;;;;;;5046318;28;20115;-71
2021/11/03 07:26:18;;;;;;;1.00;0.60;;;;;;;;;;5048445;28;20048;-71
2021/11/03 07:28:44;;;;;;;0.45;0.40;;;;;;;;;;5045325;28;20523;-72
2021/11/03 07:31:11;;;;;;;0.98;0.60;;;;;;;;;;5045274;28;20116;-71
2021/11/03 07:33:37;;;;;;;1.00;0.65;;;;;;;;;;5047739;28;20037;-70
2021/11/03 07:36:04;;;;;;;2.92;0.70;;;;;;;;;;5050437;28;20052;-69
2021/11/03 07:38:30;;;;;;;0.60;0.47;;;;;;;;;;5046494;28;20021;-70
2021/11/03 07:40:57;;;;;;;1.27;0.90;;;;;;;;;;5047440;28;20025;-69
2021/11/03 07:43:25;;;;;;;1.08;0.68;;;;;;;;;;5047470;28;20028;-69
2021/11/03 07:45:52;;;;;;;2.15;1.00;;;;;;;;;;5048561;28;20051;-70
2021/11/03 07:48:19;;;;;;;2.25;1.20;;;;;;;;;;5045600;28;20477;-71
2021/11/03 07:50:47;;;;;;;2.28;1.40;;;;;;;;;;5044882;28;20029;-72
2021/11/03 07:53:15;;;;;;;2.85;1.20;;;;;;;;;;5048217;28;20021;-74
2021/11/03 07:55:42;;;;;;;1.48;0.73;;;;;;;;;;5048739;28;20468;-71
2021/11/03 07:58:11;;;;;;;3.05;0.65;;;;;;;;;;5047319;28;20024;-73
2021/11/03 08:00:37;;;;;;;3.08;1.10;;;;;;;;;;5043916;28;20175;-77
2021/11/03 08:03:04;;;;;;;1.20;0.70;;;;;;;;;;5050439;28;20405;-76
2021/11/03 08:05:30;;;;;;;1.02;0.75;;;;;;;;;;5049148;28;20457;-72
2021/11/03 08:07:57;;;;;;;1.48;0.80;;;;;;;;;;5045893;28;20032;-75
2021/11/03 08:10:24;;;;;;;1.45;0.95;;;;;;;;;;5050211;28;20028;-71
2021/11/03 08:12:52;;;;;;;2.78;1.90;;;;;;;;;;5048453;28;20018;-73
2021/11/03 08:15:17;;;;;;;4.93;3.25;;;;;;;;;;5049880;28;20035;-75
2021/11/03 08:17:44;;;;;;;3.20;1.30;;;;;;;;;;5047300;28;20434;-77
2021/11/03 08:20:12;;;;;;;2.38;1.40;;;;;;;;;;5048754;28;20472;-76
2021/11/03 08:22:38;;;;;;;19.05;12.30;;;;;;;;;;5047002;28;20029;-75
2021/11/03 08:25:04;;;;;;;11.55;5.53;;;;;;;;;;5047496;28;20075;-75
2021/11/03 08:27:30;;;;;;;4.60;2.53;;;;;;;;;;5048314;28;20070;-76
2021/11/03 08:29:56;;;;;;;4.75;2.88;;;;;;;;;;5060773;28;20438;-71
2021/11/03 08:32:25;;;;;;;3.47;2.20;;;;;;;;;;5048953;28;20075;-68
2021/11/03 08:34:51;;;;;;;2.67;1.55;;;;;;;;;;5047737;28;20468;-68
2021/11/03 08:37:20;;;;;;;2.85;1.52;;;;;;;;;;5042690;28;20029;-68
2021/11/03 08:39:46;;;;;;;;;;;;;;;;;;5044535;28;20052;-66
2021/11/03 08:42:12;;;;;;;4.80;1.80;;;;;;;;;;5049785;28;20372;-68
2021/11/03 08:44:40;;;;;;;4.68;2.15;;;;;;;;;;5046901;28;20119;-68
2021/11/03 08:47:06;;;;;;;7.55;2.75;;;;;;;;;;5045930;28;20449;-68
2021/11/03 08:49:33;;;;;;;5.93;2.90;;;;;;;;;;5047179;28;20045;-67
2021/11/03 08:51:59;;;;;;;7.28;3.67;;;;;;;;;;5049957;28;20472;-67
2021/11/03 08:54:26;;;;;;;2.38;1.00;;;;;;;;;;5049547;28;20040;-67
2021/11/03 08:56:51;;;;;;;2.63;1.10;;;;;;;;;;5037457;28;20025;-68
2021/11/03 08:59:17;;;;;;;24.60;15.52;;;;;;;;;;5049687;28;20125;-68
2021/11/03 09:01:44;;;;;;;28.85;18.60;;;;;;;;;;5047083;28;20097;-68
2021/11/03 09:04:11;;;;;;;4.72;2.85;;;;;;;;;;5047313;28;20029;-68
2021/11/03 09:06:37;;;;;;;3.05;1.90;;;;;;;;;;5048060;28;20022;-68
2021/11/03 09:09:04;;;;;;;1.05;0.80;;;;;;;;;;5050422;28;20040;-68
2021/11/03 09:11:30;;;;;;;1.63;0.77;;;;;;;;;;5047846;28;20104;-68
2021/11/03 09:13:56;;;;;;;3.20;0.90;;;;;;;;;;5047013;28;20395;-67
2021/11/03 09:16:22;;;;;;;1.77;1.20;;;;;;;;;;5048634;28;20052;-68
2021/11/03 09:18:48;;;;;;;3.45;1.70;;;;;;;;;;5047635;28;20037;-68
2021/11/03 09:21:15;;;;;;;0.70;0.70;;;;;;;;;;5050784;28;20071;-67
2021/11/03 09:23:41;;;;;;;4.85;2.17;;;;;;;;;;5049099;28;20025;-68
2021/11/03 09:26:07;;;;;;;4.57;2.75;;;;;;;;;;5048111;28;20425;-67
2021/11/03 09:28:34;;;;;;;4.57;2.60;;;;;;;;;;5047142;28;20051;-67
2021/11/03 09:31:05;;;;;;;7.43;3.03;;;;;;;;;;5047581;28;20124;-68
2021/11/03 09:33:33;;;;;;;4.40;2.65;;;;;;;;;;5049098;28;20484;-68
2021/11/03 09:35:59;;;;;;;;;;;;;;;;;;5050685;28;20063;-65
2021/11/03 09:38:26;;;;;;;1.27;0.85;;;;;;;;;;5046087;28;19956;-68
2021/11/03 09:40:58;;;;;;;2.08;1.00;;;;;;;;;;5047039;28;20040;-68
2021/11/03 09:43:27;;;;;;;1.80;1.20;;;;;;;;;;5047077;28;20067;-68
2021/11/03 09:45:53;;;;;;;1.70;1.00;;;;;;;;;;5047239;28;20465;-68
2021/11/03 09:48:25;;;;;;;2.58;0.75;;;;;;;;;;5052141;28;20076;-68
2021/11/03 09:50:54;;;;;;;5.45;1.25;;;;;;;;;;5053756;28;20029;-68
2021/11/03 09:53:39;;;;;;;1.25;0.63;;;;;;;;;;5053204;28;20024;-68
2021/11/03 09:56:11;;;;;;;21.70;9.95;;;;;;;;;;5050828;28;20037;-68
2021/11/03 09:58:39;;;;;;;23.27;11.32;;;;;;;;;;5051043;28;20486;-68
2021/11/03 10:01:24;;;;;;;8.20;4.72;;;;;;;;;;5050937;28;20086;-68
2021/11/03 10:04:05;;;;;;;11.68;6.50;;;;;;;;;;5035609;28;20057;-68
2021/11/03 10:06:34;;;;;;;3.60;1.67;;;;;;;;;;5052689;28;20033;-68
2021/11/03 10:09:00;;;;;;;4.30;2.35;;;;;;;;;;5052641;28;20484;-68
2021/11/03 10:11:27;;;;;;;8.35;3.50;;;;;;;;;;5050754;28;20027;-68
2021/11/03 10:13:58;;;;;;;1.67;0.50;;;;;;;;;;5050454;28;20040;-68
2021/11/03 10:16:27;;;;;;;4.72;2.75;;;;;;;;;;5050537;28;20021;-68
2021/11/03 10:18:59;;;;;;;4.60;2.20;;;;;;;;;;5050756;28;20029;-68
2021/11/03 10:21:31;;;;;;;2.50;1.38;;;;;;;;;;5052693;28;20040;-68
2021/11/03 10:23:57;;;;;;;6.38;3.67;;;;;;;;;;5063978;28;20124;-68
2021/11/03 10:26:25;;;;;;;1.02;0.80;;;;;;;;;;5049670;28;20067;-68
2021/11/03 10:29:05;;;;;;;7.60;4.38;;;;;;;;;;5050180;28;20548;-66
2021/11/03 10:31:39;;;;;;;1.73;0.98;;;;;;;;;;5050638;28;20500;-69
2021/11/03 10:34:13;;;;;;;0.60;0.40;;;;;;;;;;5050162;28;20068;-69
2021/11/03 10:36:42;;;;;;;5.00;1.70;;;;;;;;;;5051352;28;20568;-68
2021/11/03 10:39:13;;;;;;;1.50;1.00;;;;;;;;;;5053208;28;20112;-68
2021/11/03 10:41:39;;;;;;;3.30;1.60;;;;;;;;;;5050344;28;20370;-68
2021/11/03 10:44:08;;;;;;;6.82;4.10;;;;;;;;;;5049561;28;20523;-68
2021/11/03 10:47:00;;;;;;;1.77;1.00;;;;;;;;;;5051332;28;20028;-69
2021/11/03 10:49:33;;;;;;;3.45;1.67;;;;;;;;;;5049020;28;20049;-68
2021/11/03 10:52:15;;;;;;;6.18;3.38;;;;;;;;;;5051265;28;20055;-68
2021/11/03 10:54:50;;;;;;;2.33;1.08;;;;;;;;;;5050204;28;20556;-68
2021/11/03 10:57:39;;;;;;;5.03;2.78;;;;;;;;;;5049093;28;20036;-68
2021/11/03 11:00:18;;;;;;;2.47;0.73;;;;;;;;;;5042192;28;20033;-68
2021/11/03 11:02:43;;;;;;;;;;;;;;;;;;5050996;28;20025;-65
2021/11/03 11:05:14;;;;;;;2.58;0.90;;;;;;;;;;5049134;28;19959;-67
2021/11/03 11:07:42;;;;;;;3.97;0.95;;;;;;;;;;5049121;28;20033;-68
2021/11/03 11:10:31;;;;;;;2.35;1.20;;;;;;;;;;5049856;28;20021;-68
2021/11/03 11:12:58;;;;;;;2.28;1.00;;;;;;;;;;5035696;28;20113;-67
2021/11/03 11:15:24;;;;;;;2.53;1.15;;;;;;;;;;5051835;28;20342;-68
2021/11/03 11:18:02;;;;;;;1.20;0.70;;;;;;;;;;5050387;28;20025;-71
2021/11/03 11:20:36;;;;;;;0.55;0.50;;;;;;;;;;5049561;28;20021;-68
2021/11/03 11:23:08;;;;;;;9.77;3.63;;;;;;;;;;5049171;28;20021;-68
2021/11/03 11:25:37;;;;;;;4.47;1.90;;;;;;;;;;5049196;28;20025;-67
2021/11/03 11:28:02;;;;;;;0.85;0.60;;;;;;;;;;5048972;28;20529;-67
2021/11/03 11:30:40;;;;;;;2.08;1.10;;;;;;;;;;5051190;28;20029;-67
2021/11/03 11:33:09;;;;;;;10.73;6.72;;;;;;;;;;5052125;28;20053;-66
2021/11/03 11:35:41;;;;;;;8.93;2.17;;;;;;;;;;5048860;28;20071;-67
2021/11/03 11:38:19;;;;;;;1.33;0.85;;;;;;;;;;5047131;28;20496;-66
2021/11/03 11:41:03;;;;;;;1.65;0.68;;;;;;;;;;5047354;28;20020;-66
2021/11/03 11:43:38;;;;;;;2.70;1.55;;;;;;;;;;5045852;28;20519;-66
2021/11/03 11:46:10;;;;;;;1.00;0.60;;;;;;;;;;5046819;28;20014;-66
2021/11/03 11:48:39;;;;;;;1.83;1.05;;;;;;;;;;5048561;28;20086;-66
2021/11/03 11:51:08;;;;;;;1.50;0.70;;;;;;;;;;5049544;28;20112;-66
2021/11/03 11:53:55;;;;;;;1.42;0.65;;;;;;;;;;5047994;28;20021;-66
2021/11/03 11:56:21;;;;;;;4.37;1.77;;;;;;;;;;5047587;28;20040;-66
2021/11/03 11:58:53;;;;;;;1.42;0.60;;;;;;;;;;5048464;28;20031;-67
2021/11/03 12:01:21;;;;;;;0.73;0.40;;;;;;;;;;5047720;28;20536;-66
2021/11/03 12:04:00;;;;;;;0.52;0.30;;;;;;;;;;5050255;28;20051;-66
2021/11/03 12:06:45;;;;;;;0.75;0.40;;;;;;;;;;5050641;28;20413;-66
2021/11/03 12:09:20;;;;;;;2.47;1.00;;;;;;;;;;5051555;28;20040;-66
2021/11/03 12:11:58;;;;;;;11.20;4.75;;;;;;;;;;5047977;28;20033;-66
2021/11/03 12:14:45;;;;;;;2.97;1.52;;;;;;;;;;5047698;28;20353;-66
2021/11/03 12:17:16;;;;;;;1.35;0.50;;;;;;;;;;5047869;28;20123;-67
2021/11/03 12:19:44;;;;;;;0.63;0.40;;;;;;;;;;5048409;28;20048;-67
2021/11/03 12:22:11;;;;;;;;;;;;;;;;;;5048562;28;20123;-66
2021/11/03 12:24:39;;;;;;;5.97;3.45;;;;;;;;;;5049750;28;20390;-66
2021/11/03 12:27:23;;;;;;;5.05;2.17;;;;;;;;;;5050710;28;20507;-66
2021/11/03 12:30:04;;;;;;;12.02;6.53;;;;;;;;;;5050664;28;20045;-66
2021/11/03 12:32:40;;;;;;;19.60;12.68;;;;;;;;;;5046074;28;20542;-66
2021/11/03 12:35:18;;;;;;;39.17;13.15;;;;;;;;;;5048058;28;20029;-66
2021/11/03 12:37:44;;;;;;;;;;;;;;;;;;5048454;28;20035;-66
2021/11/03 12:40:27;;;;;;;9.10;4.60;;;;;;;;;;5048196;28;20502;-66
2021/11/03 12:43:12;;;;;;;42.25;23.58;;;;;;;;;;5047544;28;20418;-66
2021/11/03 12:45:39;;;;;;;19.52;10.18;;;;;;;;;;5049223;28;20474;-66
2021/11/03 12:48:17;;;;;;;3.92;2.38;;;;;;;;;;5050688;28;20029;-66
2021/11/03 12:50:45;;;;;;;15.45;10.30;;;;;;;;;;5048790;28;20037;-66
2021/11/03 12:53:11;;;;;;;2.50;1.38;;;;;;;;;;5049446;28;20072;-66
2021/11/03 12:55:44;;;;;;;0.77;0.50;;;;;;;;;;5047918;28;20060;-66
2021/11/03 12:58:29;;;;;;;2.78;1.25;;;;;;;;;;5047671;28;20677;-66
2021/11/03 13:00:55;;;;;;;0.63;0.63;;;;;;;;;;5032986;28;20104;-66
2021/11/03 13:03:24;;;;;;;4.55;2.50;;;;;;;;;;5049764;28;20036;-66
2021/11/03 13:05:51;;;;;;;1.83;0.80;;;;;;;;;;5050534;28;20032;-66
2021/11/03 13:08:22;;;;;;;0.70;0.40;;;;;;;;;;5047512;28;20075;-65
2021/11/03 13:10:57;;;;;;;2.05;0.30;;;;;;;;;;5047538;28;20116;-66
2021/11/03 13:13:25;;;;;;;0.73;0.45;;;;;;;;;;5047175;28;20111;-66
2021/11/03 13:15:55;;;;;;;0.40;0.40;;;;;;;;;;5047962;28;20379;-66
2021/11/03 13:18:23;;;;;;;0.95;0.30;;;;;;;;;;5050062;28;20519;-65
2021/11/03 13:21:04;;;;;;;1.83;1.15;;;;;;;;;;5050284;28;20447;-65
2021/11/03 13:23:30;;;;;;;1.15;0.88;;;;;;;;;;5051618;28;20033;-66
2021/11/03 13:26:02;;;;;;;2.05;0.80;;;;;;;;;;5051420;28;20443;-67
2021/11/03 13:28:31;;;;;;;0.70;0.40;;;;;;;;;;5050060;28;20041;-66
2021/11/03 13:31:12;;;;;;;7.82;1.17;;;;;;;;;;5051918;28;20109;-66
2021/11/03 13:33:39;;;;;;;5.30;3.28;;;;;;;;;;5052077;28;20052;-65
2021/11/03 13:36:20;;;;;;;5.13;2.07;;;;;;;;;;5054127;28;20480;-65
2021/11/03 13:38:58;;;;;;;0.88;0.55;;;;;;;;;;5052322;28;20029;-66
2021/11/03 13:41:44;;;;;;;3.28;1.48;;;;;;;;;;5052610;28;20094;-65
2021/11/03 13:44:13;;;;;;;4.00;1.23;;;;;;;;;;5051375;28;20103;-65
2021/11/03 13:46:39;;;;;;;7.90;3.50;;;;;;;;;;5050953;28;20025;-65
2021/11/03 13:49:17;;;;;;;9.77;4.05;;;;;;;;;;5050801;28;20042;-66
2021/11/03 13:51:43;;;;;;;;;;;;;;;;;;5038063;28;20033;-64
2021/11/03 13:54:22;;;;;;;2.22;1.08;;;;;;;;;;5054791;28;20292;-66
2021/11/03 13:56:53;;;;;;;6.75;2.50;;;;;;;;;;5053010;28;20067;-67
2021/11/03 13:59:19;;;;;;;0.70;0.50;;;;;;;;;;5050913;28;20028;-67
2021/11/03 14:01:50;;;;;;;1.85;0.68;;;;;;;;;;5052179;28;20025;-67
2021/11/03 14:04:18;;;;;;;4.18;1.55;;;;;;;;;;5051264;28;20033;-67
2021/11/03 14:07:02;;;;;;;23.65;8.23;;;;;;;;;;5039566;28;20029;-65
2021/11/03 14:09:29;;;;;;;4.10;1.98;;;;;;;;;;5049288;28;20068;-68
2021/11/03 14:11:56;;;;;;;3.22;1.50;;;;;;;;;;5051950;28;20023;-65
2021/11/03 14:14:23;;;;;;;5.27;3.00;;;;;;;;;;5050899;28;20116;-65
2021/11/03 14:16:52;;;;;;;5.88;3.70;;;;;;;;;;5050661;28;20266;-66
2021/11/03 14:19:21;;;;;;;19.27;10.43;;;;;;;;;;5050853;28;20047;-67
2021/11/03 14:21:47;;;;;;;16.33;5.82;;;;;;;;;;5051071;28;20313;-66
2021/11/03 14:24:17;;;;;;;16.08;5.63;;;;;;;;;;5054760;28;20543;-65
2021/11/03 14:26:43;;;;;;;5.93;2.75;;;;;;;;;;5050774;28;20025;-67
2021/11/03 14:29:09;;;;;;;3.25;1.30;;;;;;;;;;5050519;28;20041;-68
2021/11/03 14:31:35;;;;;;;22.20;11.00;;;;;;;;;;5050332;28;20087;-66
2021/11/03 14:34:03;;;;;;;10.60;3.53;;;;;;;;;;5048656;28;20568;-65
2021/11/03 14:36:29;;;;;;;5.93;2.10;;;;;;;;;;5049221;28;20377;-65
2021/11/03 14:38:57;;;;;;;11.13;4.05;;;;;;;;;;5050076;28;20389;-64
2021/11/03 14:41:24;;;;;;;6.30;2.37;;;;;;;;;;5049755;28;20116;-65
2021/11/03 14:43:51;;;;;;;5.00;1.90;;;;;;;;;;5051243;28;20328;-64
2021/11/03 14:46:21;;;;;;;4.18;1.90;;;;;;;;;;5050150;28;20025;-65
2021/11/03 14:48:47;;;;;;;10.82;4.38;;;;;;;;;;5053387;28;20033;-63
2021/11/03 14:51:13;;;;;;;6.63;3.70;;;;;;;;;;5053238;28;20307;-65